createdAt,value
2018-04-26T00:00:34.689Z,99.99
2018-04-26T00:01:34.723Z,99.99
2018-04-26T00:02:34.757Z,99.99
2018-04-26T00:03:34.796Z,99.99
2018-04-26T00:04:34.827Z,99.99
2018-04-26T00:05:34.860Z,99.99
2018-04-26T00:06:34.893Z,99.99
2018-04-26T00:07:34.927Z,99.99
2018-04-26T00:08:34.964Z,99.99
2018-04-26T00:09:34.998Z,99.99
2018-04-26T00:10:35.031Z,99.99
2018-04-26T00:11:35.066Z,99.99
2018-04-26T00:12:35.105Z,99.99
2018-04-26T00:13:35.134Z,99.99
2018-04-26T00:14:35.168Z,99.99
2018-04-26T00:15:35.203Z,99.99
2018-04-26T00:16:35.242Z,99.99
2018-04-26T00:17:35.271Z,99.99
2018-04-26T00:18:35.306Z,99.99
2018-04-26T00:19:35.342Z,99.99
2018-04-26T00:20:35.374Z,99.99
2018-04-26T00:21:35.408Z,99.99
2018-04-26T00:22:35.441Z,99.99
2018-04-26T00:23:35.476Z,99.99
2018-04-26T00:24:35.513Z,99.99
2018-04-26T00:25:35.544Z,99.99
2018-04-26T00:26:35.579Z,99.99
2018-04-26T00:27:35.612Z,99.99
2018-04-26T00:28:35.648Z,99.99
2018-04-26T00:29:35.680Z,99.99
2018-04-26T00:30:35.714Z,99.99
2018-04-26T00:31:35.749Z,99.99
2018-04-26T00:32:35.785Z,99.99
2018-04-26T00:33:35.818Z,99.99
2018-04-26T00:34:35.851Z,99.99
2018-04-26T00:35:35.890Z,99.99
2018-04-26T00:36:35.920Z,99.99
2018-04-26T00:37:35.957Z,99.99
2018-04-26T00:38:35.995Z,99.99
2018-04-26T00:39:36.032Z,99.99
2018-04-26T00:40:36.057Z,99.99
2018-04-26T00:41:36.090Z,99.99
2018-04-26T00:42:36.123Z,99.99
2018-04-26T00:43:36.159Z,99.99
2018-04-26T00:44:36.194Z,99.99
2018-04-26T00:45:36.228Z,99.99
2018-04-26T00:46:36.261Z,99.99
2018-04-26T00:47:36.297Z,99.99
2018-04-26T00:48:36.330Z,99.99
2018-04-26T00:49:36.365Z,99.99
2018-04-26T00:50:36.398Z,99.99
2018-04-26T00:51:36.431Z,99.99
2018-04-26T00:52:36.467Z,99.99
2018-04-26T00:53:36.500Z,99.99
2018-04-26T00:54:36.534Z,99.99
2018-04-26T00:55:36.568Z,99.99
2018-04-26T00:56:36.606Z,99.99
2018-04-26T00:57:36.640Z,99.99
2018-04-26T00:58:36.671Z,99.99
2018-04-26T00:59:36.704Z,99.99
2018-04-26T01:00:36.741Z,99.99
2018-04-26T01:01:36.773Z,99.99
2018-04-26T01:02:36.807Z,99.99
2018-04-26T01:03:36.841Z,99.99
2018-04-26T01:04:36.878Z,99.99
2018-04-26T01:05:36.909Z,99.99
2018-04-26T01:06:36.942Z,99.99
2018-04-26T01:07:36.976Z,99.99
2018-04-26T01:08:37.011Z,99.99
2018-04-26T01:09:37.048Z,99.99
2018-04-26T01:10:37.078Z,99.99
2018-04-26T01:11:37.112Z,99.99
2018-04-26T01:12:37.148Z,99.99
2018-04-26T01:13:37.182Z,99.99
2018-04-26T01:14:37.223Z,99.99
2018-04-26T01:15:37.249Z,99.99
2018-04-26T01:16:37.284Z,99.99
2018-04-26T01:17:37.318Z,99.99
2018-04-26T01:18:37.351Z,99.99
2018-04-26T01:19:37.386Z,99.99
2018-04-26T01:20:37.419Z,99.99
2018-04-26T01:21:37.454Z,99.99
2018-04-26T01:22:37.486Z,99.99
2018-04-26T01:23:37.521Z,99.99
2018-04-26T01:24:37.554Z,99.99
2018-04-26T01:25:37.589Z,99.99
2018-04-26T01:26:37.622Z,99.99
2018-04-26T01:27:37.656Z,99.99
2018-04-26T01:28:37.691Z,99.99
2018-04-26T01:29:37.726Z,99.99
2018-04-26T01:30:37.757Z,99.99
2018-04-26T01:31:37.792Z,99.99
2018-04-26T01:32:37.826Z,99.99
2018-04-26T01:33:37.860Z,99.99
2018-04-26T01:34:37.893Z,99.99
2018-04-26T01:35:37.925Z,99.99
2018-04-26T01:36:37.960Z,99.99
2018-04-26T01:37:37.995Z,99.99
2018-04-26T01:38:38.027Z,99.99
2018-04-26T01:39:38.061Z,99.99
2018-04-26T01:40:38.094Z,99.99
2018-04-26T01:41:38.129Z,99.99
2018-04-26T01:42:38.163Z,99.99
2018-04-26T01:43:38.196Z,99.99
2018-04-26T01:44:38.229Z,99.99
2018-04-26T01:45:38.262Z,99.99
2018-04-26T01:46:38.298Z,99.99
2018-04-26T01:47:38.329Z,99.99
2018-04-26T01:48:38.364Z,99.99
2018-04-26T01:49:38.397Z,99.99
2018-04-26T01:50:38.431Z,99.99
2018-04-26T01:51:38.465Z,99.99
2018-04-26T01:52:38.497Z,99.99
2018-04-26T01:53:38.536Z,99.99
2018-04-26T01:54:38.565Z,99.99
2018-04-26T01:55:38.598Z,99.99
2018-04-26T01:56:38.632Z,99.99
2018-04-26T01:57:38.670Z,99.99
2018-04-26T01:58:38.699Z,99.99
2018-04-26T01:59:38.732Z,99.99
2018-04-26T02:00:38.766Z,99.99
2018-04-26T02:01:38.800Z,99.99
2018-04-26T02:02:38.833Z,99.99
2018-04-26T02:03:38.866Z,99.99
2018-04-26T02:04:38.899Z,99.99
2018-04-26T02:05:38.935Z,99.99
2018-04-26T02:06:38.967Z,99.99
2018-04-26T02:07:39.001Z,99.99
2018-04-26T02:08:39.034Z,99.99
2018-04-26T02:09:39.067Z,99.99
2018-04-26T02:10:39.102Z,99.99
2018-04-26T02:11:39.135Z,99.99
2018-04-26T02:12:39.168Z,99.99
2018-04-26T02:13:39.202Z,99.99
2018-04-26T02:14:39.234Z,99.99
2018-04-26T02:15:39.268Z,99.99
2018-04-26T02:16:39.303Z,99.99
2018-04-26T02:17:39.337Z,99.99
2018-04-26T02:18:39.369Z,99.99
2018-04-26T02:19:39.401Z,99.99
2018-04-26T02:20:39.436Z,99.99
2018-04-26T02:21:39.475Z,99.99
2018-04-26T02:22:39.503Z,99.99
2018-04-26T02:23:39.540Z,99.99
2018-04-26T02:24:39.570Z,99.99
2018-04-26T02:25:39.603Z,99.99
2018-04-26T02:26:39.636Z,99.99
2018-04-26T02:27:39.669Z,99.99
2018-04-26T02:28:39.704Z,99.99
2018-04-26T02:29:39.740Z,99.99
2018-04-26T02:30:39.769Z,99.99
2018-04-26T02:31:39.804Z,99.99
2018-04-26T02:32:39.836Z,99.99
2018-04-26T02:33:39.872Z,99.99
2018-04-26T02:34:39.904Z,99.99
2018-04-26T02:35:39.944Z,99.99
2018-04-26T02:36:39.972Z,99.99
2018-04-26T02:37:40.005Z,99.99
2018-04-26T02:38:40.036Z,99.99
2018-04-26T02:39:40.070Z,99.99
2018-04-26T02:40:40.104Z,99.99
2018-04-26T02:41:40.137Z,99.99
2018-04-26T02:42:40.169Z,99.99
2018-04-26T02:43:40.202Z,99.99
2018-04-26T02:44:40.236Z,99.99
2018-04-26T02:45:40.270Z,99.99
2018-04-26T02:46:40.303Z,99.99
2018-04-26T02:47:40.336Z,99.99
2018-04-26T02:48:40.371Z,99.99
2018-04-26T02:49:40.402Z,99.99
2018-04-26T02:50:40.436Z,99.99
2018-04-26T02:51:40.471Z,99.99
2018-04-26T02:52:40.502Z,99.99
2018-04-26T02:53:40.536Z,99.99
2018-04-26T02:54:40.567Z,99.99
2018-04-26T02:55:40.600Z,99.99
2018-04-26T02:56:40.634Z,99.99
2018-04-26T02:57:40.672Z,99.99
2018-04-26T02:58:48.812Z,99.99
2018-04-26T02:59:40.734Z,99.99
2018-04-26T03:00:40.768Z,99.99
2018-04-26T03:01:40.801Z,99.99
2018-04-26T03:02:40.833Z,99.99
2018-04-26T03:03:40.867Z,99.99
2018-04-26T03:04:40.899Z,99.99
2018-04-26T03:05:40.933Z,99.99
2018-04-26T03:06:40.965Z,99.99
2018-04-26T03:07:40.998Z,99.99
2018-04-26T03:08:41.033Z,99.99
2018-04-26T03:09:41.069Z,99.99
2018-04-26T03:10:41.098Z,99.99
2018-04-26T03:11:41.130Z,99.99
2018-04-26T03:12:41.163Z,99.99
2018-04-26T03:13:41.203Z,99.99
2018-04-26T03:14:41.229Z,99.99
2018-04-26T03:15:41.263Z,99.99
2018-04-26T03:16:41.295Z,99.99
2018-04-26T03:17:41.328Z,99.99
2018-04-26T03:18:41.361Z,99.99
2018-04-26T03:19:41.394Z,99.99
2018-04-26T03:20:41.426Z,99.99
2018-04-26T03:21:41.465Z,99.99
2018-04-26T03:22:41.492Z,99.99
2018-04-26T03:23:41.526Z,99.99
2018-04-26T03:24:41.559Z,99.99
2018-04-26T03:25:41.591Z,99.99
2018-04-26T03:26:41.624Z,99.99
2018-04-26T03:27:41.659Z,99.99
2018-04-26T03:28:41.694Z,99.99
2018-04-26T03:29:41.722Z,99.99
2018-04-26T03:30:41.753Z,99.99
2018-04-26T03:31:41.789Z,99.99
2018-04-26T03:32:41.820Z,99.99
2018-04-26T03:33:41.854Z,99.99
2018-04-26T03:34:41.886Z,99.99
2018-04-26T03:35:41.919Z,99.99
2018-04-26T03:36:41.952Z,99.99
2018-04-26T03:37:41.984Z,99.99
2018-04-26T03:38:42.016Z,99.99
2018-04-26T03:39:42.057Z,99.99
2018-04-26T03:40:42.082Z,99.99
2018-04-26T03:41:42.114Z,99.99
2018-04-26T03:42:42.147Z,99.99
2018-04-26T03:43:42.180Z,99.99
2018-04-26T03:44:42.211Z,99.99
2018-04-26T03:45:42.246Z,99.99
2018-04-26T03:46:42.277Z,99.99
2018-04-26T03:47:42.310Z,99.99
2018-04-26T03:48:42.343Z,99.99
2018-04-26T03:49:42.375Z,99.99
2018-04-26T03:50:42.407Z,99.99
2018-04-26T03:51:42.440Z,99.99
2018-04-26T03:52:42.474Z,99.99
2018-04-26T03:53:42.505Z,99.99
2018-04-26T03:54:42.538Z,99.99
2018-04-26T03:55:42.571Z,99.99
2018-04-26T03:56:42.602Z,99.99
2018-04-26T03:57:42.635Z,99.99
2018-04-26T03:58:42.674Z,99.99
2018-04-26T03:59:42.700Z,99.99
2018-04-26T04:00:42.732Z,99.99
2018-04-26T04:01:42.766Z,99.99
2018-04-26T04:02:42.796Z,99.99
2018-04-26T04:03:42.830Z,99.99
2018-04-26T04:04:42.862Z,99.99
2018-04-26T04:05:42.892Z,99.99
2018-04-26T04:06:42.925Z,99.99
2018-04-26T04:07:42.958Z,99.99
2018-04-26T04:08:42.993Z,99.99
2018-04-26T04:09:43.023Z,99.99
2018-04-26T04:10:43.055Z,99.99
2018-04-26T04:11:43.088Z,99.99
2018-04-26T04:12:43.120Z,99.99
2018-04-26T04:13:43.193Z,99.99
2018-04-26T04:14:43.183Z,99.99
2018-04-26T04:15:43.217Z,99.99
2018-04-26T04:16:43.249Z,99.99
2018-04-26T04:17:43.281Z,99.99
2018-04-26T04:18:43.313Z,99.99
2018-04-26T04:19:43.345Z,99.99
2018-04-26T04:20:43.377Z,99.99
2018-04-26T04:21:43.410Z,99.99
2018-04-26T04:22:43.441Z,99.99
2018-04-26T04:23:43.473Z,99.99
2018-04-26T04:24:43.506Z,99.99
2018-04-26T04:25:43.538Z,99.99
2018-04-26T04:26:43.576Z,99.99
2018-04-26T04:27:43.603Z,99.99
2018-04-26T04:28:43.634Z,99.99
2018-04-26T04:29:43.666Z,99.99
2018-04-26T04:30:43.698Z,99.99
2018-04-26T04:31:43.731Z,99.99
2018-04-26T04:32:43.762Z,99.99
2018-04-26T04:33:43.796Z,99.99
2018-04-26T04:34:43.827Z,99.99
2018-04-26T04:35:43.858Z,99.99
2018-04-26T04:36:43.890Z,99.99
2018-04-26T04:37:43.924Z,99.99
2018-04-26T04:38:43.956Z,99.99
2018-04-26T04:39:43.990Z,99.99
2018-04-26T04:40:44.019Z,99.99
2018-04-26T04:41:44.052Z,99.99
2018-04-26T04:42:44.083Z,99.99
2018-04-26T04:43:44.115Z,99.99
2018-04-26T04:44:44.151Z,99.99
2018-04-26T04:45:44.180Z,99.99
2018-04-26T04:46:44.213Z,99.99
2018-04-26T04:47:44.244Z,99.99
2018-04-26T04:48:44.276Z,99.99
2018-04-26T04:49:44.309Z,99.99
2018-04-26T04:50:44.340Z,99.99
2018-04-26T04:51:44.371Z,99.99
2018-04-26T04:52:44.405Z,99.99
2018-04-26T04:53:44.436Z,99.99
2018-04-26T04:54:44.469Z,99.99
2018-04-26T04:55:44.501Z,99.99
2018-04-26T04:56:44.532Z,99.99
2018-04-26T04:57:44.566Z,99.99
2018-04-26T04:58:44.598Z,99.99
2018-04-26T04:59:44.629Z,99.99
2018-04-26T05:00:44.664Z,99.99
2018-04-26T05:01:44.779Z,99.99
2018-04-26T05:02:44.726Z,99.99
2018-04-26T05:03:44.758Z,99.99
2018-04-26T05:04:44.792Z,99.99
2018-04-26T05:05:44.824Z,99.99
2018-04-26T05:06:44.854Z,99.99
2018-04-26T05:07:44.973Z,99.99
2018-04-26T05:08:44.920Z,99.99
2018-04-26T05:09:44.953Z,99.99
2018-04-26T05:10:44.985Z,99.99
2018-04-26T05:11:45.018Z,99.99
2018-04-26T05:12:45.049Z,99.99
2018-04-26T05:13:45.161Z,99.99
2018-04-26T05:14:45.114Z,99.99
2018-04-26T05:15:45.146Z,99.99
2018-04-26T05:16:45.179Z,99.99
2018-04-26T05:17:45.211Z,99.99
2018-04-26T05:18:45.243Z,99.99
2018-04-26T05:19:45.340Z,99.99
2018-04-26T05:20:45.308Z,99.99
2018-04-26T05:21:45.341Z,99.99
2018-04-26T05:22:45.371Z,99.99
2018-04-26T05:23:45.410Z,99.99
2018-04-26T05:24:45.437Z,99.99
2018-04-26T05:25:45.494Z,99.99
2018-04-26T05:26:45.502Z,99.99
2018-04-26T05:27:45.535Z,99.99
2018-04-26T05:28:45.567Z,99.99
2018-04-26T05:29:45.600Z,99.99
2018-04-26T05:30:45.632Z,99.99
2018-04-26T05:31:45.664Z,99.99
2018-04-26T05:32:45.698Z,99.99
2018-04-26T05:33:45.760Z,99.71
2018-04-26T05:34:45.778Z,99.04
2018-04-26T05:35:45.795Z,99.99
2018-04-26T05:36:45.828Z,99.99
2018-04-26T05:37:45.861Z,99.99
2018-04-26T05:38:45.893Z,99.99
2018-04-26T05:39:45.927Z,99.99
2018-04-26T05:40:45.959Z,99.62
2018-04-26T05:41:45.992Z,99.99
2018-04-26T05:42:46.025Z,97.89
2018-04-26T05:43:46.059Z,97.56
2018-04-26T05:44:46.091Z,96.22
2018-04-26T05:45:46.125Z,95.84
2018-04-26T05:46:46.158Z,94.51
2018-04-26T05:47:46.190Z,92.50
2018-04-26T05:48:46.227Z,94.41
2018-04-26T05:49:46.257Z,95.56
2018-04-26T05:50:46.290Z,98.23
2018-04-26T05:51:46.323Z,98.90
2018-04-26T05:52:46.356Z,99.99
2018-04-26T05:53:46.389Z,99.99
2018-04-26T05:54:46.422Z,99.99
2018-04-26T05:55:46.469Z,99.99
2018-04-26T05:56:46.489Z,99.99
2018-04-26T05:57:46.524Z,99.99
2018-04-26T05:58:46.558Z,99.99
2018-04-26T05:59:46.589Z,99.99
2018-04-26T06:00:46.621Z,99.99
2018-04-26T06:01:46.655Z,99.99
2018-04-26T06:02:46.689Z,99.99
2018-04-26T06:03:46.773Z,99.99
2018-04-26T06:04:46.754Z,99.99
2018-04-26T06:05:46.787Z,99.99
2018-04-26T06:06:46.819Z,99.99
2018-04-26T06:07:46.854Z,99.99
2018-04-26T06:08:46.885Z,99.99
2018-04-26T06:09:46.918Z,99.99
2018-04-26T06:10:46.950Z,99.99
2018-04-26T06:11:46.984Z,99.99
2018-04-26T06:12:47.016Z,99.99
2018-04-26T06:13:47.049Z,99.99
2018-04-26T06:14:47.102Z,99.99
2018-04-26T06:15:47.116Z,99.99
2018-04-26T06:16:47.219Z,99.99
2018-04-26T06:17:47.265Z,99.99
2018-04-26T06:18:47.215Z,99.99
2018-04-26T06:19:47.248Z,99.99
2018-04-26T06:20:47.281Z,99.99
2018-04-26T06:21:47.314Z,99.99
2018-04-26T06:22:47.346Z,99.99
2018-04-26T06:23:47.381Z,99.99
2018-04-26T06:24:47.412Z,99.99
2018-04-26T06:25:47.447Z,99.99
2018-04-26T06:26:47.477Z,99.99
2018-04-26T06:27:47.511Z,99.99
2018-04-26T06:28:47.543Z,99.99
2018-04-26T06:29:47.580Z,99.99
2018-04-26T06:30:47.609Z,99.99
2018-04-26T06:31:47.644Z,99.99
2018-04-26T06:32:47.675Z,99.99
2018-04-26T06:33:47.708Z,99.99
2018-04-26T06:34:47.740Z,99.99
2018-04-26T06:35:47.773Z,99.99
2018-04-26T06:36:47.878Z,99.99
2018-04-26T06:37:47.840Z,99.99
2018-04-26T06:38:47.871Z,99.99
2018-04-26T06:39:47.908Z,99.99
2018-04-26T06:40:47.936Z,99.99
2018-04-26T06:41:47.968Z,99.99
2018-04-26T06:42:48.000Z,99.99
2018-04-26T06:43:48.033Z,99.99
2018-04-26T06:44:48.066Z,99.99
2018-04-26T06:45:48.100Z,99.99
2018-04-26T06:46:48.131Z,99.99
2018-04-26T06:47:48.224Z,99.99
2018-04-26T06:48:48.196Z,99.99
2018-04-26T06:49:48.230Z,99.99
2018-04-26T06:50:48.261Z,99.99
2018-04-26T06:51:48.294Z,99.99
2018-04-26T06:52:48.327Z,99.99
2018-04-26T06:53:48.360Z,99.99
2018-04-26T06:54:48.392Z,99.99
2018-04-26T06:55:48.429Z,99.99
2018-04-26T06:56:48.458Z,99.99
2018-04-26T06:57:48.493Z,99.99
2018-04-26T06:58:48.525Z,99.99
2018-04-26T06:59:48.556Z,99.99
2018-04-26T07:00:48.590Z,99.99
2018-04-26T07:01:48.622Z,99.99
2018-04-26T07:02:48.655Z,99.99
2018-04-26T07:03:48.688Z,99.99
2018-04-26T07:04:48.721Z,99.99
2018-04-26T07:05:48.757Z,99.99
2018-04-26T07:06:48.786Z,99.99
2018-04-26T07:07:48.820Z,99.99
2018-04-26T07:08:48.852Z,99.99
2018-04-26T07:09:48.886Z,99.99
2018-04-26T07:10:48.918Z,99.99
2018-04-26T07:11:48.955Z,99.99
2018-04-26T07:12:48.984Z,99.99
2018-04-26T07:13:49.017Z,99.99
2018-04-26T07:14:49.048Z,99.99
2018-04-26T07:15:49.081Z,99.99
2018-04-26T07:16:49.115Z,99.99
2018-04-26T07:17:49.148Z,99.99
2018-04-26T07:18:49.185Z,99.99
2018-04-26T07:19:49.214Z,99.99
2018-04-26T07:20:49.249Z,99.99
2018-04-26T07:21:49.318Z,99.99
2018-04-26T07:22:49.312Z,99.99
2018-04-26T07:23:49.346Z,99.99
2018-04-26T07:24:49.379Z,99.99
2018-04-26T07:25:49.412Z,99.99
2018-04-26T07:26:49.445Z,99.99
2018-04-26T07:27:49.479Z,99.23
2018-04-26T07:28:49.512Z,99.42
2018-04-26T07:29:49.546Z,99.32
2018-04-26T07:30:49.578Z,98.03
2018-04-26T07:31:49.610Z,98.23
2018-04-26T07:32:49.644Z,97.47
2018-04-26T07:33:49.678Z,99.47
2018-04-26T07:34:49.788Z,93.74
2018-04-26T07:35:49.744Z,94.98
2018-04-26T07:36:49.777Z,96.13
2018-04-26T07:37:49.811Z,93.93
2018-04-26T07:38:49.843Z,91.83
2018-04-26T07:39:49.879Z,92.02
2018-04-26T07:40:49.911Z,91.74
2018-04-26T07:41:49.944Z,91.69
2018-04-26T07:42:49.977Z,90.25
2018-04-26T07:43:50.013Z,88.73
2018-04-26T07:44:50.085Z,88.34
2018-04-26T07:45:50.080Z,85.48
2018-04-26T07:46:50.113Z,85.14
2018-04-26T07:47:50.146Z,84.56
2018-04-26T07:48:50.181Z,84.42
2018-04-26T07:49:50.214Z,82.79
2018-04-26T07:50:50.251Z,83.08
2018-04-26T07:51:50.282Z,82.84
2018-04-26T07:52:50.316Z,83.80
2018-04-26T07:53:50.350Z,83.90
2018-04-26T07:54:50.383Z,83.61
2018-04-26T07:55:50.424Z,84.09
2018-04-26T07:56:50.452Z,83.28
2018-04-26T07:57:50.486Z,84.85
2018-04-26T07:58:50.521Z,83.51
2018-04-26T07:59:50.555Z,82.94
2018-04-26T08:00:50.590Z,83.04
2018-04-26T08:01:50.687Z,82.94
2018-04-26T08:02:50.658Z,83.99
2018-04-26T08:03:50.691Z,84.03
2018-04-26T08:04:50.727Z,80.88
2018-04-26T08:05:50.761Z,79.93
2018-04-26T08:06:50.795Z,80.69
2018-04-26T08:07:50.830Z,81.45
2018-04-26T08:08:50.864Z,80.59
2018-04-26T08:09:50.899Z,80.88
2018-04-26T08:10:50.941Z,80.21
2018-04-26T08:11:51.009Z,80.21
2018-04-26T08:12:51.003Z,79.64
2018-04-26T08:13:51.037Z,79.64
2018-04-26T08:14:51.071Z,80.02
2018-04-26T08:15:51.107Z,81.84
2018-04-26T08:16:51.141Z,80.69
2018-04-26T08:17:51.175Z,80.21
2018-04-26T08:18:51.211Z,80.69
2018-04-26T08:19:51.245Z,80.02
2018-04-26T08:20:51.280Z,77.76
2018-04-26T08:21:51.316Z,80.06
2018-04-26T08:22:51.349Z,77.34
2018-04-26T08:23:51.385Z,76.39
2018-04-26T08:24:51.419Z,77.15
2018-04-26T08:25:51.457Z,77.44
2018-04-26T08:26:51.488Z,77.40
2018-04-26T08:27:51.525Z,77.97
2018-04-26T08:28:51.559Z,78.26
2018-04-26T08:29:51.594Z,77.92
2018-04-26T08:30:51.628Z,77.92
2018-04-26T08:31:51.663Z,77.82
2018-04-26T08:32:51.699Z,77.44
2018-04-26T08:33:51.735Z,77.15
2018-04-26T08:34:51.768Z,76.10
2018-04-26T08:35:51.803Z,76.45
2018-04-26T08:36:51.862Z,76.25
2018-04-26T08:37:51.873Z,76.45
2018-04-26T08:38:51.908Z,78.36
2018-04-26T08:39:52.041Z,77.40
2018-04-26T08:40:51.978Z,76.64
2018-04-26T08:41:52.011Z,76.45
2018-04-26T08:42:52.047Z,77.21
2018-04-26T08:43:52.081Z,76.92
2018-04-26T08:44:52.117Z,77.21
2018-04-26T08:45:52.151Z,79.50
2018-04-26T08:46:52.186Z,79.93
2018-04-26T08:47:52.220Z,77.21
2018-04-26T08:48:52.256Z,76.16
2018-04-26T08:49:52.291Z,76.39
2018-04-26T08:50:52.330Z,76.86
2018-04-26T08:51:52.359Z,77.57
2018-04-26T08:52:52.395Z,74.61
2018-04-26T08:53:52.430Z,73.90
2018-04-26T08:54:52.464Z,73.27
2018-04-26T08:55:52.499Z,74.13
2018-04-26T08:56:52.534Z,74.61
2018-04-26T08:57:52.569Z,74.22
2018-04-26T08:58:52.604Z,74.36
2018-04-26T08:59:52.638Z,73.69
2018-04-26T09:00:52.673Z,73.79
2018-04-26T09:01:52.708Z,73.40
2018-04-26T09:02:52.749Z,72.25
2018-04-26T09:03:52.777Z,70.05
2018-04-26T09:04:52.817Z,71.58
2018-04-26T09:05:52.849Z,70.40
2018-04-26T09:06:52.913Z,71.73
2018-04-26T09:07:52.919Z,69.64
2018-04-26T09:08:52.954Z,69.12
2018-04-26T09:09:52.993Z,69.21
2018-04-26T09:10:53.027Z,68.39
2018-04-26T09:11:53.059Z,67.63
2018-04-26T09:12:53.095Z,68.71
2018-04-26T09:13:53.133Z,70.05
2018-04-26T09:14:53.165Z,69.13
2018-04-26T09:15:53.203Z,68.36
2018-04-26T09:16:53.237Z,68.49
2018-04-26T09:17:53.272Z,67.05
2018-04-26T09:18:53.307Z,66.58
2018-04-26T09:19:53.342Z,66.67
2018-04-26T09:20:53.379Z,65.62
2018-04-26T09:21:53.416Z,66.00
2018-04-26T09:22:53.450Z,66.09
2018-04-26T09:23:53.485Z,66.48
2018-04-26T09:24:53.524Z,66.38
2018-04-26T09:25:53.558Z,69.20
2018-04-26T09:26:53.600Z,66.64
2018-04-26T09:27:53.630Z,64.79
2018-04-26T09:28:53.667Z,65.68
2018-04-26T09:29:53.702Z,63.96
2018-04-26T09:30:53.739Z,61.18
2018-04-26T09:31:53.776Z,60.70
2018-04-26T09:32:53.817Z,61.94
2018-04-26T09:33:53.850Z,63.22
2018-04-26T09:34:53.885Z,60.63
2018-04-26T09:35:53.922Z,57.53
2018-04-26T09:36:53.960Z,59.06
2018-04-26T09:37:53.998Z,59.16
2018-04-26T09:38:54.033Z,60.05
2018-04-26T09:39:54.072Z,58.01
2018-04-26T09:40:54.108Z,58.20
2018-04-26T09:41:54.146Z,57.63
2018-04-26T09:42:54.185Z,58.33
2018-04-26T09:43:54.220Z,56.51
2018-04-26T09:44:54.258Z,55.57
2018-04-26T09:45:54.296Z,52.60
2018-04-26T09:46:54.333Z,54.16
2018-04-26T09:47:54.371Z,52.14
2018-04-26T09:48:54.410Z,50.44
2018-04-26T09:49:54.448Z,49.82
2018-04-26T09:50:54.487Z,48.03
2018-04-26T09:51:54.527Z,44.19
2018-04-26T09:52:54.567Z,43.82
2018-04-26T09:53:54.606Z,42.07
2018-04-26T09:54:54.647Z,41.99
2018-04-26T09:55:54.690Z,41.28
2018-04-26T09:56:54.732Z,40.55
2018-04-26T09:57:54.777Z,38.56
2018-04-26T09:58:54.816Z,37.00
2018-04-26T09:59:54.859Z,36.52
2018-04-26T10:00:54.903Z,36.01
2018-04-26T10:01:54.947Z,36.11
2018-04-26T10:02:54.991Z,37.60
2018-04-26T10:03:55.036Z,36.53
2018-04-26T10:04:55.082Z,34.89
2018-04-26T10:05:55.125Z,34.54
2018-04-26T10:06:55.170Z,35.31
2018-04-26T10:07:55.218Z,34.42
2018-04-26T10:08:55.262Z,35.99
2018-04-26T10:09:55.317Z,33.45
2018-04-26T10:10:55.353Z,33.67
2018-04-26T10:11:55.400Z,34.27
2018-04-26T10:12:55.448Z,34.38
2018-04-26T10:13:55.495Z,33.41
2018-04-26T10:14:55.541Z,33.10
2018-04-26T10:15:55.590Z,33.44
2018-04-26T10:16:55.681Z,33.54
2018-04-26T10:17:55.685Z,34.31
2018-04-26T10:18:55.734Z,34.60
2018-04-26T10:19:55.783Z,33.60
2018-04-26T10:20:55.831Z,32.04
2018-04-26T10:21:55.881Z,31.71
2018-04-26T10:22:55.929Z,30.91
2018-04-26T10:23:55.978Z,30.45
2018-04-26T10:24:56.031Z,30.92
2018-04-26T10:25:56.077Z,31.15
2018-04-26T10:26:56.125Z,31.84
2018-04-26T10:27:56.176Z,30.01
2018-04-26T10:28:56.228Z,29.35
2018-04-26T10:29:56.357Z,28.50
2018-04-26T10:30:56.325Z,28.42
2018-04-26T10:31:56.376Z,28.86
2018-04-26T10:32:56.428Z,28.45
2018-04-26T10:33:56.476Z,28.25
2018-04-26T10:34:56.526Z,28.65
2018-04-26T10:35:56.577Z,29.33
2018-04-26T10:36:56.628Z,30.04
2018-04-26T10:37:56.679Z,29.79
2018-04-26T10:38:56.729Z,29.14
2018-04-26T10:39:56.780Z,30.07
2018-04-26T10:40:56.831Z,32.78
2018-04-26T10:41:56.886Z,36.03
2018-04-26T10:42:56.933Z,37.93
2018-04-26T10:43:56.982Z,38.60
2018-04-26T10:44:57.035Z,36.84
2018-04-26T10:45:57.081Z,37.04
2018-04-26T10:46:57.130Z,35.97
2018-04-26T10:47:57.180Z,33.75
2018-04-26T10:48:57.229Z,32.29
2018-04-26T10:49:57.277Z,30.81
2018-04-26T10:50:57.327Z,31.73
2018-04-26T10:51:57.378Z,36.11
2018-04-26T10:52:57.427Z,35.80
2018-04-26T10:53:57.475Z,34.31
2018-04-26T10:54:57.522Z,33.23
2018-04-26T10:55:57.570Z,32.67
2018-04-26T10:56:57.619Z,31.04
2018-04-26T10:57:57.669Z,29.71
2018-04-26T10:58:57.718Z,30.09
2018-04-26T10:59:57.767Z,29.47
2018-04-26T11:00:57.821Z,29.58
2018-04-26T11:01:57.868Z,31.84
2018-04-26T11:02:57.917Z,34.60
2018-04-26T11:03:57.967Z,35.82
2018-04-26T11:04:58.016Z,37.71
2018-04-26T11:05:58.064Z,35.57
2018-04-26T11:06:58.113Z,33.20
2018-04-26T11:07:58.166Z,32.29
2018-04-26T11:08:58.210Z,33.26
2018-04-26T11:09:58.258Z,33.14
2018-04-26T11:10:58.307Z,30.71
2018-04-26T11:11:58.359Z,30.65
2018-04-26T11:12:58.404Z,32.97
2018-04-26T11:13:58.453Z,34.66
2018-04-26T11:14:58.502Z,39.29
2018-04-26T11:15:58.550Z,41.51
2018-04-26T11:16:58.599Z,41.36
2018-04-26T11:17:58.647Z,36.92
2018-04-26T11:18:58.696Z,35.88
2018-04-26T11:19:58.742Z,34.65
2018-04-26T11:20:58.791Z,31.60
2018-04-26T11:21:58.839Z,31.16
2018-04-26T11:22:58.887Z,29.06
2018-04-26T11:23:58.936Z,26.87
2018-04-26T11:24:58.985Z,26.78
2018-04-26T11:25:59.035Z,24.94
2018-04-26T11:26:59.083Z,25.70
2018-04-26T11:27:59.133Z,24.63
2018-04-26T11:28:59.183Z,24.52
2018-04-26T11:29:59.234Z,24.29
2018-04-26T11:30:59.372Z,23.44
2018-04-26T11:31:59.340Z,24.60
2018-04-26T11:32:59.385Z,28.45
2018-04-26T11:33:59.437Z,28.32
2018-04-26T11:34:59.486Z,30.78
2018-04-26T11:35:59.537Z,30.36
2018-04-26T11:36:59.588Z,32.62
2018-04-26T11:37:59.638Z,34.86
2018-04-26T11:38:59.690Z,38.31
2018-04-26T11:39:59.736Z,39.09
2018-04-26T11:40:59.786Z,39.74
2018-04-26T11:41:59.834Z,39.36
2018-04-26T11:42:59.880Z,40.12
2018-04-26T11:43:59.927Z,40.22
2018-04-26T11:44:59.975Z,39.72
2018-04-26T11:46:00.023Z,40.20
2018-04-26T11:47:00.067Z,38.72
2018-04-26T11:48:00.113Z,37.72
2018-04-26T11:49:00.163Z,38.81
2018-04-26T11:50:00.204Z,34.60
2018-04-26T11:51:00.248Z,32.10
2018-04-26T11:52:00.295Z,29.05
2018-04-26T11:53:00.340Z,28.66
2018-04-26T11:54:00.385Z,27.45
2018-04-26T11:55:00.430Z,26.40
2018-04-26T11:56:00.477Z,24.95
2018-04-26T11:57:00.525Z,24.66
2018-04-26T11:58:00.573Z,24.87
2018-04-26T11:59:00.619Z,23.15
2018-04-26T12:00:00.671Z,21.88
2018-04-26T12:01:00.719Z,22.76
2018-04-26T12:02:00.765Z,21.89
2018-04-26T12:03:00.813Z,22.07
2018-04-26T12:04:00.863Z,21.98
2018-04-26T12:05:00.917Z,22.79
2018-04-26T12:06:00.962Z,22.00
2018-04-26T12:07:01.012Z,24.06
2018-04-26T12:08:01.063Z,23.46
2018-04-26T12:09:01.114Z,21.22
2018-04-26T12:10:01.167Z,22.76
2018-04-26T12:11:01.215Z,22.14
2018-04-26T12:12:01.267Z,23.35
2018-04-26T12:13:01.318Z,23.82
2018-04-26T12:14:01.369Z,23.49
2018-04-26T12:15:01.420Z,22.00
2018-04-26T12:16:01.471Z,20.48
2018-04-26T12:17:01.523Z,19.81
2018-04-26T12:18:01.574Z,18.77
2018-04-26T12:19:01.625Z,17.85
2018-04-26T12:20:01.676Z,19.43
2018-04-26T12:21:01.727Z,17.45
2018-04-26T12:22:01.780Z,18.42
2018-04-26T12:23:01.832Z,18.24
2018-04-26T12:24:01.909Z,16.88
2018-04-26T12:25:01.939Z,16.74
2018-04-26T12:26:01.991Z,17.40
2018-04-26T12:27:02.044Z,17.97
2018-04-26T12:28:02.095Z,18.19
2018-04-26T12:29:02.148Z,17.40
2018-04-26T12:30:02.203Z,20.54
2018-04-26T12:31:02.253Z,24.02
2018-04-26T12:32:02.306Z,22.78
2018-04-26T12:33:02.359Z,21.29
2018-04-26T12:34:02.414Z,19.78
2018-04-26T12:35:02.469Z,18.21
2018-04-26T12:36:02.514Z,16.74
2018-04-26T12:37:02.567Z,17.03
2018-04-26T12:38:02.620Z,16.74
2018-04-26T12:39:02.670Z,16.74
2018-04-26T12:40:02.723Z,17.60
2018-04-26T12:41:02.776Z,20.12
2018-04-26T12:42:02.928Z,18.39
2018-04-26T12:43:02.881Z,17.60
2018-04-26T12:44:02.952Z,17.21
2018-04-26T12:45:02.987Z,18.49
2018-04-26T12:46:03.040Z,19.01
2018-04-26T12:47:03.090Z,20.76
2018-04-26T12:48:03.142Z,20.31
2018-04-26T12:49:03.197Z,20.06
2018-04-26T12:50:03.247Z,19.96
2018-04-26T12:51:03.298Z,19.32
2018-04-26T12:52:03.351Z,19.13
2018-04-26T12:53:03.402Z,19.88